Time;durP1;ratioP1;P1;durP2;ratioP2;P2;SDS_P1;SDS_P2;PMS_P1;PMS_P2;Temp;Humidity;BMP_temperature;BMP_pressure;BME280_temperature;BME280_humidity;BME280_pressure;Samples;Min_cycle;Max_cycle;Signal;HPM_P1;HPM_P2
2021/12/31 00:00:17;;;;;;;10.07;9.13;;;13.60;99.90;;;;;;615985;233;26588;-80
2021/12/31 00:02:45;;;;;;;10.73;9.70;;;13.60;99.90;;;;;;615961;233;26571;-80
2021/12/31 00:05:13;;;;;;;10.67;9.67;;;13.40;99.90;;;;;;615640;233;26681;-80
2021/12/31 00:07:40;;;;;;;9.73;8.83;;;13.40;99.90;;;;;;615543;233;26678;-80
2021/12/31 00:10:08;;;;;;;10.00;9.10;;;13.30;99.90;;;;;;615463;233;26661;-80
2021/12/31 00:12:35;;;;;;;9.33;8.40;;;13.30;99.90;;;;;;615558;233;26627;-80
2021/12/31 00:15:03;;;;;;;9.70;8.70;;;13.30;99.90;;;;;;615618;233;26625;-80
2021/12/31 00:17:31;;;;;;;10.27;9.27;;;13.30;99.90;;;;;;615576;228;26863;-80
2021/12/31 00:20:11;;;;;;;10.60;9.60;;;13.30;99.90;;;;;;615686;233;26631;-79
2021/12/31 00:25:09;;;;;;;12.80;10.90;;;13.30;99.90;;;;;;615451;233;26696;-80
2021/12/31 00:27:36;;;;;;;11.17;10.07;;;13.40;99.90;;;;;;615509;233;26661;-80
2021/12/31 00:30:03;;;;;;;13.27;10.97;;;13.60;99.90;;;;;;615382;234;26553;-80
2021/12/31 00:32:31;;;;;;;13.23;11.03;;;13.40;99.90;;;;;;615352;234;26853;-79
2021/12/31 00:34:58;;;;;;;12.87;11.57;;;13.40;99.90;;;;;;615514;228;26584;-80
2021/12/31 00:37:28;;;;;;;13.37;12.07;;;13.20;99.90;;;;;;615446;234;26572;-79
2021/12/31 00:39:56;;;;;;;13.53;12.20;;;13.50;99.90;;;;;;615326;228;26592;-79
2021/12/31 00:42:24;;;;;;;14.07;12.37;;;13.30;99.90;;;;;;615421;233;26582;-79
2021/12/31 00:44:52;;;;;;;12.97;11.67;;;13.30;99.90;;;;;;615451;233;26565;-80
2021/12/31 00:47:20;;;;;;;13.70;12.30;;;13.50;99.90;;;;;;615438;233;26560;-79
2021/12/31 00:49:47;;;;;;;13.33;11.93;;;13.40;99.90;;;;;;615385;234;26585;-79
2021/12/31 00:52:14;;;;;;;14.03;12.60;;;13.50;99.90;;;;;;615438;233;26624;-79
2021/12/31 00:54:42;;;;;;;12.83;11.63;;;13.70;99.90;;;;;;615371;233;26580;-79
2021/12/31 00:57:08;;;;;;;12.80;11.57;;;13.90;99.90;;;;;;616196;231;26618;-80
2021/12/31 00:59:36;;;;;;;13.50;12.10;;;13.50;99.90;;;;;;616632;233;26624;-79
2021/12/31 01:02:05;;;;;;;15.27;11.47;;;13.50;99.90;;;;;;616359;233;26624;-80
2021/12/31 01:04:32;;;;;;;14.93;11.20;;;13.40;99.90;;;;;;616035;233;26555;-80
2021/12/31 01:06:59;;;;;;;14.37;11.67;;;13.50;99.90;;;;;;616039;233;26848;-80
2021/12/31 01:09:26;;;;;;;11.80;10.70;;;13.60;99.90;;;;;;615834;233;26600;-80
2021/12/31 01:11:54;;;;;;;12.27;11.07;;;13.70;99.90;;;;;;615880;233;27217;-80
2021/12/31 01:14:33;;;;;;;12.43;10.97;;;13.40;99.90;;;;;;615823;233;26579;-79
2021/12/31 01:17:02;;;;;;;11.57;10.43;;;13.50;99.90;;;;;;615461;233;26611;-80
2021/12/31 01:22:08;;;;;;;10.93;9.90;;;13.50;99.90;;;;;;615652;233;26647;-80
2021/12/31 01:24:35;;;;;;;11.67;10.47;;;13.50;99.90;;;;;;615529;233;26633;-81
2021/12/31 01:27:03;;;;;;;10.37;9.40;;;13.60;99.90;;;;;;615566;233;26614;-80
2021/12/31 01:29:30;;;;;;;11.30;10.20;;;13.60;99.90;;;;;;615461;233;26647;-79
2021/12/31 01:31:58;;;;;;;11.40;10.00;;;13.60;99.90;;;;;;615416;233;26837;-80
2021/12/31 01:34:25;;;;;;;11.67;10.33;;;13.80;99.90;;;;;;615180;233;26668;-80
2021/12/31 01:36:52;;;;;;;10.50;9.47;;;14.00;99.90;;;;;;615217;228;26817;-80
2021/12/31 01:39:19;;;;;;;9.77;8.97;;;13.90;99.90;;;;;;615261;228;26605;-80
2021/12/31 01:41:46;;;;;;;10.60;9.70;;;13.80;99.90;;;;;;615352;233;26860;-80
2021/12/31 01:44:14;;;;;;;10.70;9.23;;;13.70;99.90;;;;;;615403;233;26599;-80
2021/12/31 01:46:52;;;;;;;11.37;10.37;;;13.80;99.90;;;;;;615299;233;26827;-80
2021/12/31 01:49:21;;;;;;;11.33;9.10;;;13.90;99.90;;;;;;615219;234;26599;-80
2021/12/31 01:51:46;;;;;;;10.43;9.43;;;13.80;99.90;;;;;;615622;234;26786;-80
2021/12/31 01:54:13;;;;;;;9.70;8.90;;;13.70;99.90;;;;;;615838;233;26537;-80
2021/12/31 01:56:41;;;;;;;8.50;7.80;;;13.60;99.90;;;;;;615853;234;26792;-80
2021/12/31 01:59:09;;;;;;;7.90;7.20;;;13.70;99.90;;;;;;615736;234;26586;-80
2021/12/31 02:01:36;;;;;;;8.10;7.47;;;13.70;99.90;;;;;;615811;233;26796;-80
2021/12/31 02:04:05;;;;;;;9.27;7.73;;;13.80;99.90;;;;;;615874;234;26533;-80
2021/12/31 02:06:33;;;;;;;7.77;7.17;;;13.60;99.90;;;;;;615671;234;26556;-80
2021/12/31 02:09:00;;;;;;;7.10;6.50;;;13.60;99.90;;;;;;616715;231;26571;-80
2021/12/31 02:11:28;;;;;;;7.43;6.73;;;13.80;99.90;;;;;;616406;233;26624;-78
2021/12/31 02:13:55;;;;;;;6.63;6.03;;;13.80;99.90;;;;;;616162;233;26820;-79
2021/12/31 02:16:22;;;;;;;7.03;6.30;;;13.90;99.90;;;;;;616141;233;26793;-79
2021/12/31 02:18:49;;;;;;;7.07;6.37;;;13.80;99.90;;;;;;615907;233;26820;-80
2021/12/31 02:21:17;;;;;;;6.67;6.07;;;13.70;99.90;;;;;;615886;233;26528;-79
2021/12/31 02:23:47;;;;;;;6.97;6.30;;;13.60;99.90;;;;;;615825;233;26882;-80
2021/12/31 02:26:11;;;;;;;7.00;6.30;;;13.50;99.90;;;;;;615431;233;26626;-79
2021/12/31 02:28:38;;;;;;;7.70;7.00;;;13.50;99.90;;;;;;615496;233;26938;-80
2021/12/31 02:31:06;;;;;;;8.87;7.07;;;13.50;99.90;;;;;;615469;233;26644;-80
2021/12/31 02:33:34;;;;;;;7.70;7.00;;;13.50;99.90;;;;;;615435;233;26633;-80
2021/12/31 02:36:02;;;;;;;7.47;6.77;;;13.50;99.90;;;;;;615539;233;26679;-80
2021/12/31 02:38:30;;;;;;;7.33;6.63;;;13.60;99.90;;;;;;615364;233;26625;-79
2021/12/31 02:40:58;;;;;;;8.60;7.73;;;13.60;99.90;;;;;;615563;233;26647;-80
2021/12/31 02:43:25;;;;;;;8.43;7.63;;;13.60;99.90;;;;;;615489;233;26666;-79
2021/12/31 02:45:52;;;;;;;8.07;7.37;;;13.60;99.90;;;;;;615333;233;26638;-79
2021/12/31 02:48:25;;;;;;;9.47;8.03;;;13.60;99.90;;;;;;615324;234;26882;-79
2021/12/31 02:50:51;;;;;;;9.37;8.57;;;13.60;99.90;;;;;;615240;234;26833;-80
2021/12/31 02:53:19;;;;;;;9.83;7.70;;;13.60;99.90;;;;;;615244;234;26575;-79
2021/12/31 02:55:47;;;;;;;8.80;7.93;;;13.80;99.90;;;;;;615037;234;26573;-80
2021/12/31 02:58:15;;;;;;;9.43;8.47;;;13.90;99.90;;;;;;615016;234;26588;-80
2021/12/31 03:00:42;;;;;;;8.87;7.97;;;13.90;99.90;;;;;;615276;230;26580;-80
2021/12/31 03:03:11;;;;;;;9.47;8.53;;;13.80;99.90;;;;;;615352;228;26565;-80
2021/12/31 03:05:37;;;;;;;8.83;8.10;;;13.70;99.90;;;;;;615246;234;26824;-80
2021/12/31 03:08:04;;;;;;;9.50;8.57;;;13.70;99.90;;;;;;615320;234;26573;-80
2021/12/31 03:10:32;;;;;;;10.30;9.23;;;13.50;99.90;;;;;;615203;234;26596;-79
2021/12/31 03:12:59;;;;;;;8.80;7.93;;;13.50;99.90;;;;;;615325;233;26597;-80
2021/12/31 03:15:26;;;;;;;9.10;8.30;;;13.60;99.90;;;;;;615410;234;26561;-80
2021/12/31 03:17:57;;;;;;;10.43;9.50;;;13.60;99.90;;;;;;615462;233;26877;-80
2021/12/31 03:20:36;;;;;;;10.17;9.20;;;13.50;99.90;;;;;;616098;231;26899;-80
2021/12/31 03:22:52;;;;;;;11.00;9.73;;;13.40;99.90;;;;;;615777;232;26626;-80
2021/12/31 03:25:19;;;;;;;10.60;9.70;;;13.40;99.90;;;;;;616415;233;26609;-79
2021/12/31 03:27:46;;;;;;;12.63;9.90;;;13.40;99.90;;;;;;616339;233;26567;-80
2021/12/31 03:30:16;;;;;;;10.50;9.43;;;13.50;99.90;;;;;;615890;233;26603;-80
2021/12/31 03:32:41;;;;;;;11.00;10.00;;;13.50;99.90;;;;;;615707;233;26779;-80
2021/12/31 03:35:08;;;;;;;12.50;10.33;;;13.50;99.90;;;;;;615894;233;26540;-80
2021/12/31 03:37:35;;;;;;;11.40;10.30;;;13.60;99.90;;;;;;615858;233;26838;-80
2021/12/31 03:40:03;;;;;;;11.63;10.53;;;13.70;99.90;;;;;;615503;233;26655;-80
2021/12/31 03:42:31;;;;;;;11.57;10.27;;;13.70;99.90;;;;;;615639;233;26619;-80
2021/12/31 03:44:57;;;;;;;11.97;10.67;;;13.80;99.90;;;;;;615472;233;26839;-79
2021/12/31 03:47:24;;;;;;;11.47;10.27;;;13.90;99.90;;;;;;615554;233;26592;-80
2021/12/31 03:49:52;;;;;;;10.77;9.70;;;13.80;99.90;;;;;;615518;233;26954;-80
2021/12/31 03:52:19;;;;;;;11.63;9.87;;;13.80;99.90;;;;;;615584;233;26625;-80
2021/12/31 03:54:46;;;;;;;10.90;10.00;;;13.90;99.90;;;;;;615467;233;27143;-79
2021/12/31 03:57:13;;;;;;;12.83;9.80;;;14.00;99.90;;;;;;615279;233;26741;-79
2021/12/31 03:59:40;;;;;;;10.07;9.17;;;14.00;99.90;;;;;;615204;234;26898;-81
2021/12/31 04:02:08;;;;;;;11.00;10.07;;;13.90;99.90;;;;;;615313;234;26569;-80
2021/12/31 04:04:35;;;;;;;11.47;10.30;;;13.80;99.90;;;;;;615336;234;27306;-80
2021/12/31 04:07:02;;;;;;;11.33;10.23;;;13.80;99.90;;;;;;615251;233;26557;-80
2021/12/31 04:09:29;;;;;;;12.90;10.43;;;13.60;99.90;;;;;;615251;233;26845;-80
2021/12/31 04:11:56;;;;;;;10.70;9.60;;;13.70;99.90;;;;;;615352;234;26580;-80
2021/12/31 04:14:24;;;;;;;12.67;9.57;;;13.60;99.90;;;;;;615299;234;26866;-80
2021/12/31 04:16:51;;;;;;;10.77;9.77;;;13.70;99.90;;;;;;615241;234;26579;-80
2021/12/31 04:19:18;;;;;;;12.07;10.27;;;13.70;99.90;;;;;;615203;230;26887;-80
2021/12/31 04:21:48;;;;;;;10.90;9.80;;;13.80;99.90;;;;;;615201;233;26560;-80
2021/12/31 04:24:26;;;;;;;10.20;9.30;;;13.70;99.90;;;;;;614901;234;26831;-80
2021/12/31 04:26:42;;;;;;;10.97;9.80;;;13.80;99.90;;;;;;614154;234;26576;-79
2021/12/31 04:29:10;;;;;;;11.30;9.10;;;13.80;99.90;;;;;;615073;233;26591;-80
2021/12/31 04:31:38;;;;;;;13.13;9.73;;;13.60;99.90;;;;;;615757;231;26621;-80
2021/12/31 04:34:08;;;;;;;10.23;9.27;;;13.50;99.90;;;;;;616414;233;26625;-80
2021/12/31 04:36:33;;;;;;;9.63;8.80;;;13.50;99.90;;;;;;615916;233;26659;-80
2021/12/31 04:39:00;;;;;;;9.93;9.00;;;13.60;99.90;;;;;;615865;233;26591;-80
2021/12/31 04:41:28;;;;;;;11.93;9.00;;;13.60;99.90;;;;;;615622;233;26836;-80
2021/12/31 04:43:55;;;;;;;10.03;9.17;;;13.70;99.90;;;;;;615775;233;26563;-80
2021/12/31 04:46:22;;;;;;;10.17;9.03;;;13.80;99.90;;;;;;615874;233;26818;-81
2021/12/31 04:48:49;;;;;;;9.80;8.83;;;13.50;99.90;;;;;;615828;233;26571;-80
2021/12/31 04:51:16;;;;;;;9.53;8.63;;;13.50;99.90;;;;;;615523;233;27204;-79
2021/12/31 04:53:44;;;;;;;9.63;8.70;;;13.30;99.90;;;;;;615415;233;26631;-85
2021/12/31 04:56:11;;;;;;;8.20;7.50;;;13.40;99.90;;;;;;615412;233;27251;-80
2021/12/31 04:58:39;;;;;;;8.10;7.30;;;13.50;99.90;;;;;;615423;233;26624;-80
2021/12/31 05:01:07;;;;;;;8.00;7.40;;;13.50;99.90;;;;;;615398;233;26634;-80
2021/12/31 05:03:35;;;;;;;7.27;6.67;;;13.50;99.90;;;;;;615352;233;26631;-80
2021/12/31 05:06:03;;;;;;;7.80;6.70;;;13.50;99.90;;;;;;615507;233;26600;-80
2021/12/31 05:08:31;;;;;;;6.27;5.77;;;13.60;99.90;;;;;;615281;233;26623;-79
2021/12/31 05:10:59;;;;;;;8.37;5.63;;;13.70;99.90;;;;;;615283;233;26620;-79
2021/12/31 05:13:26;;;;;;;5.53;5.13;;;13.60;99.90;;;;;;615241;233;26582;-80
2021/12/31 05:15:57;;;;;;;6.00;5.33;;;13.60;99.90;;;;;;615262;233;26590;-79
2021/12/31 05:18:20;;;;;;;5.37;4.93;;;13.70;99.90;;;;;;614877;234;26933;-80
2021/12/31 05:20:47;;;;;;;4.97;4.53;;;13.80;99.90;;;;;;615155;234;26660;-80
2021/12/31 05:23:15;;;;;;;5.10;4.70;;;13.70;99.90;;;;;;615209;234;26855;-79
2021/12/31 05:25:42;;;;;;;5.10;4.80;;;13.70;99.90;;;;;;615151;234;26565;-79
2021/12/31 05:28:09;;;;;;;5.50;5.07;;;13.70;99.90;;;;;;615206;234;26973;-81
2021/12/31 05:30:37;;;;;;;6.03;4.77;;;13.80;99.90;;;;;;615231;234;26598;-80
2021/12/31 05:33:05;;;;;;;5.20;4.80;;;13.80;99.90;;;;;;615247;234;26569;-80
2021/12/31 05:35:33;;;;;;;6.37;4.90;;;13.60;99.90;;;;;;615242;233;26586;-80
2021/12/31 05:38:00;;;;;;;4.97;4.57;;;13.60;99.90;;;;;;615154;234;26849;-80
2021/12/31 05:40:27;;;;;;;5.00;4.60;;;13.60;99.90;;;;;;615176;230;26628;-80
2021/12/31 05:42:54;;;;;;;4.87;4.47;;;13.60;99.90;;;;;;615585;231;26834;-80
2021/12/31 05:45:22;;;;;;;4.77;4.30;;;13.70;99.90;;;;;;616647;233;26821;-80
2021/12/31 05:47:49;;;;;;;4.80;4.40;;;13.80;99.90;;;;;;616224;233;26835;-80
2021/12/31 05:50:27;;;;;;;4.60;4.20;;;13.90;99.90;;;;;;616076;233;26594;-79
2021/12/31 05:52:45;;;;;;;4.43;4.07;;;13.80;99.90;;;;;;615164;233;26563;-80
2021/12/31 05:55:12;;;;;;;4.70;4.40;;;13.70;99.90;;;;;;615807;233;26571;-80
2021/12/31 05:57:40;;;;;;;4.80;4.40;;;13.80;99.90;;;;;;615713;228;26590;-79
2021/12/31 06:00:09;;;;;;;5.93;5.00;;;13.90;99.90;;;;;;615756;233;26587;-80
2021/12/31 06:02:36;;;;;;;4.67;4.30;;;13.90;99.90;;;;;;615447;233;27267;-80
2021/12/31 06:05:03;;;;;;;4.43;4.13;;;14.00;99.90;;;;;;615587;233;26610;-80
2021/12/31 06:07:30;;;;;;;4.60;4.20;;;13.80;99.90;;;;;;615548;233;26612;-78
2021/12/31 06:09:58;;;;;;;6.70;5.17;;;13.80;99.90;;;;;;615552;230;26969;-80
2021/12/31 06:12:25;;;;;;;5.97;5.10;;;13.70;99.90;;;;;;615528;228;26866;-80
2021/12/31 06:14:54;;;;;;;4.90;4.50;;;13.70;99.90;;;;;;615387;233;26901;-79
2021/12/31 06:17:25;;;;;;;4.77;4.47;;;13.80;99.90;;;;;;616009;233;26601;-79
2021/12/31 06:19:48;;;;;;;4.87;4.40;;;13.80;99.90;;;;;;615549;233;26871;-83
2021/12/31 06:22:15;;;;;;;4.87;4.57;;;13.80;99.90;;;;;;615787;233;26550;-79
2021/12/31 06:24:42;;;;;;;5.13;4.73;;;14.00;99.90;;;;;;615802;233;26763;-79
2021/12/31 06:27:10;;;;;;;4.90;4.60;;;14.00;99.90;;;;;;615768;234;26543;-82
2021/12/31 06:29:38;;;;;;;5.00;4.70;;;13.70;99.90;;;;;;615763;230;26578;-81
2021/12/31 06:32:06;;;;;;;5.37;4.97;;;13.60;99.90;;;;;;615762;233;26579;-79
2021/12/31 06:34:33;;;;;;;5.13;4.73;;;13.60;99.90;;;;;;615815;234;26585;-79
2021/12/31 06:37:00;;;;;;;5.50;5.00;;;13.80;99.90;;;;;;615780;234;26540;-79
2021/12/31 06:39:28;;;;;;;5.23;4.83;;;13.70;99.90;;;;;;615791;233;26565;-79
2021/12/31 06:41:56;;;;;;;6.50;4.93;;;13.70;99.90;;;;;;615795;233;26545;-80
2021/12/31 06:44:24;;;;;;;5.07;4.67;;;13.60;99.90;;;;;;615511;234;26584;-79
2021/12/31 06:46:51;;;;;;;5.30;4.90;;;13.70;99.90;;;;;;615018;234;26589;-80
2021/12/31 06:49:18;;;;;;;5.40;4.80;;;13.60;99.90;;;;;;614854;233;26929;-79
2021/12/31 06:51:45;;;;;;;5.13;4.83;;;13.80;99.90;;;;;;614870;234;26793;-79
2021/12/31 06:54:12;;;;;;;5.63;5.13;;;13.70;99.90;;;;;;615301;231;26820;-79
2021/12/31 06:56:40;;;;;;;5.27;4.97;;;13.70;99.90;;;;;;605954;233;26606;-79
2021/12/31 06:59:07;;;;;;;6.27;5.67;;;13.60;99.90;;;;;;616268;233;26862;-80
2021/12/31 07:01:35;;;;;;;5.67;5.17;;;13.60;99.90;;;;;;616068;233;26551;-79
2021/12/31 07:04:03;;;;;;;5.57;5.07;;;13.50;99.90;;;;;;615876;233;26591;-79
2021/12/31 07:06:31;;;;;;;5.63;5.20;;;13.50;99.90;;;;;;615696;233;26583;-79
2021/12/31 07:08:59;;;;;;;5.60;5.03;;;13.80;99.90;;;;;;615804;233;26583;-80
2021/12/31 07:11:26;;;;;;;5.77;5.07;;;13.80;99.90;;;;;;604943;233;26688;-79
2021/12/31 07:13:53;;;;;;;6.37;5.30;;;13.70;99.90;;;;;;615486;233;26622;-79
2021/12/31 07:16:20;;;;;;;5.50;5.00;;;13.80;99.90;;;;;;615432;233;26909;-78
2021/12/31 07:18:47;;;;;;;5.50;5.00;;;13.70;99.90;;;;;;615461;233;26611;-78
2021/12/31 07:21:15;;;;;;;5.17;4.73;;;13.70;99.90;;;;;;615468;233;26850;-79
2021/12/31 07:23:42;;;;;;;4.90;4.50;;;13.80;99.90;;;;;;615539;233;26611;-79
2021/12/31 07:26:10;;;;;;;5.30;4.90;;;13.70;99.90;;;;;;615444;233;26895;-78
2021/12/31 07:28:37;;;;;;;5.67;5.17;;;13.70;99.90;;;;;;615508;230;26623;-79
2021/12/31 07:31:06;;;;;;;5.47;4.97;;;13.90;99.90;;;;;;615326;233;26880;-79
2021/12/31 07:33:33;;;;;;;4.70;4.40;;;13.80;99.90;;;;;;615193;234;26557;-79
2021/12/31 07:36:00;;;;;;;5.00;4.67;;;13.80;99.90;;;;;;615198;233;26615;-79
2021/12/31 07:38:32;;;;;;;4.83;4.43;;;13.80;99.90;;;;;;615187;234;26566;-79
2021/12/31 07:40:55;;;;;;;4.73;4.40;;;13.70;99.90;;;;;;614744;234;26850;-79
2021/12/31 07:43:22;;;;;;;4.90;4.50;;;13.90;99.90;;;;;;615175;234;26572;-78
2021/12/31 07:45:51;;;;;;;4.83;4.43;;;13.90;99.90;;;;;;615205;233;26576;-79
2021/12/31 07:48:18;;;;;;;4.80;4.47;;;14.00;99.90;;;;;;615221;233;26557;-79
2021/12/31 07:50:46;;;;;;;5.10;4.70;;;14.20;99.90;;;;;;615110;230;27019;-79
2021/12/31 07:53:13;;;;;;;5.20;4.70;;;14.10;99.90;;;;;;615140;232;26613;-80
2021/12/31 07:55:41;;;;;;;5.83;4.60;;;14.10;99.90;;;;;;614991;233;26572;-79
2021/12/31 07:58:09;;;;;;;4.90;4.47;;;14.10;99.90;;;;;;614965;228;26560;-80
2021/12/31 08:00:36;;;;;;;4.63;4.20;;;14.10;99.90;;;;;;615050;228;26770;-79
2021/12/31 08:03:03;;;;;;;4.63;4.33;;;14.00;99.90;;;;;;615058;233;26564;-79
2021/12/31 08:05:30;;;;;;;5.03;4.53;;;14.10;99.90;;;;;;615060;234;26873;-79
2021/12/31 08:08:00;;;;;;;4.43;4.10;;;14.20;99.90;;;;;;616730;231;26656;-79
2021/12/31 08:10:26;;;;;;;7.00;4.00;;;14.00;99.90;;;;;;616111;227;26875;-80
2021/12/31 08:12:53;;;;;;;4.20;3.90;;;13.90;99.90;;;;;;616164;233;27087;-79
2021/12/31 08:15:21;;;;;;;4.80;3.97;;;14.00;99.90;;;;;;616079;233;26579;-80
2021/12/31 08:17:49;;;;;;;4.53;3.80;;;13.90;99.90;;;;;;615922;233;26584;-80
2021/12/31 08:20:17;;;;;;;4.23;3.83;;;13.80;99.90;;;;;;615915;230;26611;-80
2021/12/31 08:22:44;;;;;;;5.03;3.60;;;13.80;99.90;;;;;;615833;233;26572;-79
2021/12/31 08:25:11;;;;;;;3.70;3.37;;;13.90;99.90;;;;;;615646;233;26607;-80
2021/12/31 08:27:38;;;;;;;3.77;3.53;;;14.00;99.90;;;;;;615564;233;26982;-79
2021/12/31 08:30:07;;;;;;;3.73;3.40;;;14.00;99.90;;;;;;615517;233;26641;-79
2021/12/31 08:32:34;;;;;;;6.33;3.70;;;13.90;99.90;;;;;;615568;233;26904;-79
2021/12/31 08:35:01;;;;;;;3.73;3.43;;;14.00;99.90;;;;;;615487;233;26822;-79
2021/12/31 08:37:28;;;;;;;4.20;3.17;;;14.10;99.90;;;;;;615489;233;27326;-80
2021/12/31 08:39:57;;;;;;;4.43;3.87;;;14.00;99.90;;;;;;615478;233;26640;-79
2021/12/31 08:42:22;;;;;;;3.83;3.00;;;14.00;99.90;;;;;;615280;233;26877;-79
2021/12/31 08:44:50;;;;;;;3.00;2.77;;;13.90;99.90;;;;;;615236;233;26568;-79
2021/12/31 08:47:18;;;;;;;5.20;3.23;;;14.10;99.90;;;;;;614404;233;26567;-77
2021/12/31 08:49:46;;;;;;;3.10;2.90;;;14.20;99.90;;;;;;614726;233;26677;-79
2021/12/31 08:52:14;;;;;;;2.80;2.50;;;14.20;99.90;;;;;;629499;227;26597;-79
2021/12/31 08:54:41;;;;;;;4.57;2.93;;;14.20;99.90;;;;;;625619;229;26808;-79
2021/12/31 08:57:08;;;;;;;3.07;2.60;;;14.00;99.90;;;;;;630742;227;26927;-80
2021/12/31 08:59:35;;;;;;;2.97;2.73;;;14.00;99.90;;;;;;618421;229;26848;-76
2021/12/31 09:02:04;;;;;;;2.60;2.43;;;14.20;99.90;;;;;;623525;230;26604;-76
2021/12/31 09:04:31;;;;;;;4.13;2.77;;;14.10;99.90;;;;;;616399;232;26615;-76
2021/12/31 09:06:58;;;;;;;2.83;2.63;;;14.30;99.90;;;;;;614516;234;26817;-76
2021/12/31 09:09:26;;;;;;;3.03;2.43;;;14.30;99.90;;;;;;613962;233;26862;-76
2021/12/31 09:11:54;;;;;;;2.50;2.30;;;14.30;99.90;;;;;;630514;226;26854;-76
2021/12/31 09:14:20;;;;;;;2.90;2.60;;;14.30;99.90;;;;;;623845;230;26827;-76
2021/12/31 09:16:48;;;;;;;3.17;2.80;;;14.50;99.90;;;;;;618627;231;26635;-77
2021/12/31 09:19:15;;;;;;;4.57;2.50;;;14.40;99.90;;;;;;625364;228;27402;-77
2021/12/31 09:21:43;;;;;;;3.07;2.70;;;14.20;99.90;;;;;;614212;233;26613;-77
2021/12/31 09:24:10;;;;;;;2.60;2.40;;;14.30;99.90;;;;;;625857;229;26814;-78
2021/12/31 09:26:37;;;;;;;2.47;2.37;;;14.20;99.90;;;;;;615925;232;26567;-76
2021/12/31 09:29:04;;;;;;;3.33;2.43;;;14.10;99.90;;;;;;625148;229;26793;-75
2021/12/31 09:31:33;;;;;;;4.27;2.50;;;14.10;99.90;;;;;;626086;227;26556;-75
2021/12/31 09:34:01;;;;;;;2.80;2.10;;;14.40;99.90;;;;;;623147;230;26541;-74
2021/12/31 09:36:28;;;;;;;5.33;2.60;;;14.30;99.90;;;;;;603368;230;26610;-77
2021/12/31 09:38:55;;;;;;;4.53;2.63;;;14.30;99.90;;;;;;627431;225;26540;-76
2021/12/31 09:41:22;;;;;;;2.57;2.37;;;14.20;99.90;;;;;;626477;229;27253;-77
2021/12/31 09:43:50;;;;;;;3.20;2.50;;;14.30;99.90;;;;;;620237;231;26629;-76
2021/12/31 09:46:17;;;;;;;3.27;2.00;;;14.30;99.90;;;;;;639945;221;27238;-77
2021/12/31 09:48:44;;;;;;;3.70;2.47;;;14.40;99.90;;;;;;639683;221;26592;-76
2021/12/31 09:51:11;;;;;;;3.73;2.17;;;14.40;99.90;;;;;;637075;225;26874;-76
2021/12/31 09:53:38;;;;;;;3.10;2.10;;;14.50;99.90;;;;;;643514;221;26582;-77
2021/12/31 09:56:06;;;;;;;2.30;2.10;;;14.50;99.90;;;;;;649942;221;27469;-77
2021/12/31 09:58:35;;;;;;;2.00;1.90;;;14.50;99.90;;;;;;650084;221;26581;-77
2021/12/31 10:01:02;;;;;;;1.97;1.87;;;14.70;99.90;;;;;;649615;221;26566;-78
2021/12/31 10:03:30;;;;;;;4.07;1.90;;;14.70;99.90;;;;;;649954;221;26579;-77
2021/12/31 10:05:58;;;;;;;2.50;1.90;;;14.60;99.90;;;;;;650055;221;26538;-77
2021/12/31 10:08:26;;;;;;;3.33;2.33;;;14.80;99.90;;;;;;649957;221;26595;-80
2021/12/31 10:11:12;;;;;;;3.90;2.60;;;14.80;99.90;;;;;;648701;221;26538;-80
2021/12/31 10:13:40;;;;;;;2.63;2.40;;;14.70;99.90;;;;;;638489;224;26621;-81
2021/12/31 10:16:19;;;;;;;3.40;2.17;;;14.70;99.90;;;;;;640530;223;26516;-81
2021/12/31 10:18:47;;;;;;;2.47;2.20;;;14.60;99.90;;;;;;640860;222;26742;-81
2021/12/31 10:21:15;;;;;;;2.07;1.90;;;14.60;99.90;;;;;;647075;222;26563;-82
2021/12/31 10:23:42;;;;;;;4.97;2.10;;;14.60;99.90;;;;;;647309;222;26889;-83
2021/12/31 10:26:10;;;;;;;2.90;1.73;;;14.60;99.90;;;;;;641419;222;27211;-84
2021/12/31 10:28:38;;;;;;;2.10;1.87;;;14.70;99.90;;;;;;637141;224;26799;-83
2021/12/31 10:31:09;;;;;;;3.47;1.70;;;14.60;99.90;;;;;;637226;224;26532;-86
2021/12/31 10:33:40;;;;;;;2.90;1.93;;;14.60;99.90;;;;;;638335;223;26544;-79
2021/12/31 10:36:07;;;;;;;2.37;1.87;;;14.60;99.90;;;;;;637848;225;26546;-80
2021/12/31 10:38:36;;;;;;;2.80;2.00;;;14.60;99.90;;;;;;638087;225;26848;-79
2021/12/31 10:41:03;;;;;;;3.20;1.93;;;14.50;99.90;;;;;;637669;225;26507;-80
2021/12/31 10:43:30;;;;;;;2.17;2.00;;;14.40;99.90;;;;;;637801;225;26519;-81
2021/12/31 10:45:59;;;;;;;2.33;1.80;;;14.40;99.90;;;;;;637538;222;26514;-79
2021/12/31 10:48:36;;;;;;;2.73;2.13;;;14.40;99.90;;;;;;637460;224;26803;-80
2021/12/31 10:51:03;;;;;;;1.77;1.67;;;14.30;99.90;;;;;;637389;224;27222;-81
2021/12/31 10:53:34;;;;;;;4.13;1.93;;;14.30;99.90;;;;;;637313;224;26555;-81
2021/12/31 10:56:07;;;;;;;2.23;1.80;;;14.30;99.90;;;;;;637370;224;26585;-80
2021/12/31 10:58:34;;;;;;;3.27;1.70;;;14.30;99.90;;;;;;637387;224;26810;-81
2021/12/31 11:01:03;;;;;;;2.57;1.90;;;14.30;99.90;;;;;;637387;220;26571;-80
2021/12/31 11:03:31;;;;;;;4.10;1.90;;;14.40;99.90;;;;;;637159;223;26605;-80
2021/12/31 11:05:59;;;;;;;2.50;2.10;;;14.40;99.90;;;;;;637147;224;26888;-81
2021/12/31 11:08:26;;;;;;;1.90;1.47;;;14.30;99.90;;;;;;637098;224;26575;-80
2021/12/31 11:10:54;;;;;;;2.00;1.70;;;14.40;99.90;;;;;;636953;221;26818;-79
2021/12/31 11:13:21;;;;;;;1.90;1.80;;;14.40;99.90;;;;;;636909;223;26827;-81
2021/12/31 11:15:50;;;;;;;2.10;1.97;;;14.40;99.90;;;;;;636919;224;26587;-80
2021/12/31 11:18:20;;;;;;;2.40;2.20;;;14.30;99.90;;;;;;637046;225;26592;-80
2021/12/31 11:20:45;;;;;;;2.67;1.93;;;14.30;99.90;;;;;;637436;219;26561;-80
2021/12/31 11:23:12;;;;;;;1.70;1.60;;;14.40;99.90;;;;;;637627;224;26778;-80
2021/12/31 11:25:52;;;;;;;2.13;1.87;;;14.40;99.90;;;;;;637620;224;26515;-81
2021/12/31 11:28:23;;;;;;;2.83;2.10;;;14.40;99.90;;;;;;637604;225;26778;-80
2021/12/31 11:30:50;;;;;;;4.57;2.10;;;14.50;99.90;;;;;;636959;224;26817;-80
2021/12/31 11:33:18;;;;;;;2.00;1.80;;;14.70;99.90;;;;;;637569;224;26819;-80
2021/12/31 11:35:46;;;;;;;1.83;1.70;;;14.80;99.90;;;;;;637627;225;26773;-80
2021/12/31 11:38:15;;;;;;;2.03;1.70;;;14.60;99.90;;;;;;637415;225;26542;-81
2021/12/31 11:40:45;;;;;;;1.93;1.83;;;14.70;99.90;;;;;;636446;223;26814;-80
2021/12/31 11:43:19;;;;;;;2.97;2.03;;;14.60;99.90;;;;;;638986;224;26799;-80
2021/12/31 11:45:45;;;;;;;3.07;2.40;;;14.50;99.90;;;;;;638678;225;26489;-80
2021/12/31 11:48:35;;;;;;;2.03;1.87;;;14.30;99.90;;;;;;635753;225;26770;-80
2021/12/31 11:51:04;;;;;;;4.70;2.10;;;14.30;99.90;;;;;;635459;224;26570;-80
2021/12/31 11:53:30;;;;;;;1.50;1.50;;;14.50;99.90;;;;;;637971;225;26755;-80
2021/12/31 11:55:58;;;;;;;1.87;1.77;;;14.50;99.90;;;;;;638254;224;26479;-80
2021/12/31 11:58:37;;;;;;;2.07;1.77;;;14.60;99.90;;;;;;638223;224;26729;-81
2021/12/31 12:01:30;;;;;;;2.07;1.73;;;14.60;99.90;;;;;;637667;225;26727;-80
2021/12/31 12:04:09;;;;;;;3.07;1.80;;;14.70;99.90;;;;;;637169;225;26523;-79
2021/12/31 12:06:54;;;;;;;1.93;1.73;;;14.50;99.90;;;;;;637389;224;26561;-80
2021/12/31 12:09:21;;;;;;;1.80;1.70;;;14.40;99.90;;;;;;636755;225;26540;-80
2021/12/31 12:11:59;;;;;;;2.10;1.97;;;14.40;99.90;;;;;;642689;221;27468;-80
2021/12/31 12:14:37;;;;;;;1.70;1.50;;;14.40;99.90;;;;;;647335;222;26608;-80
2021/12/31 12:17:05;;;;;;;2.50;1.83;;;14.50;99.90;;;;;;647225;222;26580;-80
2021/12/31 12:19:45;;;;;;;3.90;1.93;;;14.40;99.90;;;;;;647106;222;26612;-79
2021/12/31 12:22:25;;;;;;;2.00;1.90;;;14.40;99.90;;;;;;647015;222;26574;-79
2021/12/31 12:24:52;;;;;;;150.47;129.37;;;14.40;99.90;;;;;;647453;222;26791;-80
2021/12/31 12:27:19;;;;;;;5.17;1.90;;;14.40;99.90;;;;;;647675;222;26561;-80
2021/12/31 12:29:47;;;;;;;3.30;1.90;;;14.70;99.90;;;;;;647544;222;26556;-80
2021/12/31 12:32:17;;;;;;;2.60;1.83;;;14.60;99.90;;;;;;647642;222;26579;-80
2021/12/31 12:34:42;;;;;;;2.50;1.70;;;14.60;99.90;;;;;;647572;222;26549;-80
2021/12/31 12:37:10;;;;;;;3.00;1.70;;;14.60;99.90;;;;;;647688;222;26488;-80
2021/12/31 12:39:38;;;;;;;2.20;1.97;;;14.70;99.90;;;;;;647599;222;26578;-80
2021/12/31 12:42:07;;;;;;;2.63;1.63;;;14.70;99.90;;;;;;647658;222;26532;-80
2021/12/31 12:44:36;;;;;;;1.90;1.70;;;14.60;99.90;;;;;;647205;222;26593;-80
2021/12/31 12:47:03;;;;;;;2.00;1.60;;;14.90;99.90;;;;;;647545;222;26570;-80
2021/12/31 12:49:30;;;;;;;2.43;1.90;;;14.90;99.90;;;;;;647624;222;26792;-80
2021/12/31 12:51:57;;;;;;;2.07;1.80;;;14.70;99.90;;;;;;647696;219;26837;-80